sensor_id;sensor_type;location;lat;lon;timestamp;pressure;altitude;pressure_sealevel;temperature;humidity
11049;BME280;5577;42.706;23.160;2023-04-15T00:00:21;93360.69;;;8.02;100.00
11049;BME280;5577;42.706;23.160;2023-04-15T00:03:05;93352.38;;;7.81;100.00
11049;BME280;5577;42.706;23.160;2023-04-15T00:05:49;93349.81;;;7.85;100.00
11049;BME280;5577;42.706;23.160;2023-04-15T00:08:33;93363.75;;;7.85;100.00
11049;BME280;5577;42.706;23.160;2023-04-15T00:11:17;93368.59;;;7.83;100.00
11049;BME280;5577;42.706;23.160;2023-04-15T00:14:02;93365.75;;;7.73;100.00
11049;BME280;5577;42.706;23.160;2023-04-15T00:16:46;93372.53;;;7.74;100.00
11049;BME280;5577;42.706;23.160;2023-04-15T00:19:30;93377.81;;;7.74;100.00
11049;BME280;5577;42.706;23.160;2023-04-15T00:22:15;93373.31;;;7.74;100.00
11049;BME280;5577;42.706;23.160;2023-04-15T00:24:59;93340.16;;;7.54;100.00
11049;BME280;5577;42.706;23.160;2023-04-15T00:27:44;93367.22;;;7.70;100.00
11049;BME280;5577;42.706;23.160;2023-04-15T00:30:27;93366.25;;;7.59;100.00
11049;BME280;5577;42.706;23.160;2023-04-15T00:33:12;93363.22;;;7.42;100.00
11049;BME280;5577;42.706;23.160;2023-04-15T00:35:56;93354.56;;;7.41;100.00
11049;BME280;5577;42.706;23.160;2023-04-15T00:38:40;93365.78;;;7.38;100.00
11049;BME280;5577;42.706;23.160;2023-04-15T00:41:24;93378.59;;;7.40;100.00
11049;BME280;5577;42.706;23.160;2023-04-15T00:44:08;93388.53;;;7.46;100.00
11049;BME280;5577;42.706;23.160;2023-04-15T00:46:53;93384.44;;;7.49;100.00
11049;BME280;5577;42.706;23.160;2023-04-15T00:49:37;93379.50;;;7.47;100.00
11049;BME280;5577;42.706;23.160;2023-04-15T00:52:21;93376.03;;;7.43;100.00
11049;BME280;5577;42.706;23.160;2023-04-15T00:55:06;93382.47;;;7.46;100.00
11049;BME280;5577;42.706;23.160;2023-04-15T00:57:51;93356.91;;;7.27;100.00
11049;BME280;5577;42.706;23.160;2023-04-15T01:00:36;93378.31;;;7.45;100.00
11049;BME280;5577;42.706;23.160;2023-04-15T01:03:20;93370.78;;;7.43;100.00
11049;BME280;5577;42.706;23.160;2023-04-15T01:06:04;93330.44;;;7.05;100.00
11049;BME280;5577;42.706;23.160;2023-04-15T01:08:48;93366.16;;;7.21;100.00
11049;BME280;5577;42.706;23.160;2023-04-15T01:11:33;93343.28;;;6.75;100.00
11049;BME280;5577;42.706;23.160;2023-04-15T01:14:18;93373.13;;;6.98;100.00
11049;BME280;5577;42.706;23.160;2023-04-15T01:17:02;93377.38;;;7.03;100.00
11049;BME280;5577;42.706;23.160;2023-04-15T01:19:46;93377.28;;;7.15;100.00
11049;BME280;5577;42.706;23.160;2023-04-15T01:22:32;93381.63;;;7.07;100.00
11049;BME280;5577;42.706;23.160;2023-04-15T01:25:18;93385.28;;;7.03;100.00
11049;BME280;5577;42.706;23.160;2023-04-15T01:28:03;93379.25;;;7.02;100.00
11049;BME280;5577;42.706;23.160;2023-04-15T01:30:47;93386.63;;;6.97;100.00
11049;BME280;5577;42.706;23.160;2023-04-15T01:33:31;93388.59;;;6.84;100.00
11049;BME280;5577;42.706;23.160;2023-04-15T01:36:15;93374.84;;;6.44;100.00
11049;BME280;5577;42.706;23.160;2023-04-15T01:38:59;93397.16;;;6.50;100.00
11049;BME280;5577;42.706;23.160;2023-04-15T01:41:43;93399.31;;;6.33;100.00
11049;BME280;5577;42.706;23.160;2023-04-15T01:44:27;93390.28;;;6.18;100.00
11049;BME280;5577;42.706;23.160;2023-04-15T01:47:11;93409.75;;;6.29;100.00
11049;BME280;5577;42.706;23.160;2023-04-15T01:49:55;93405.53;;;6.13;100.00
11049;BME280;5577;42.706;23.160;2023-04-15T01:52:39;93401.50;;;6.15;100.00
11049;BME280;5577;42.706;23.160;2023-04-15T01:55:22;93396.97;;;6.16;100.00
11049;BME280;5577;42.706;23.160;2023-04-15T01:58:07;93369.06;;;5.96;100.00
11049;BME280;5577;42.706;23.160;2023-04-15T02:00:51;93394.13;;;5.93;100.00
11049;BME280;5577;42.706;23.160;2023-04-15T02:03:36;93393.69;;;5.91;100.00
11049;BME280;5577;42.706;23.160;2023-04-15T02:06:20;93383.34;;;5.82;100.00
11049;BME280;5577;42.706;23.160;2023-04-15T02:09:04;93403.13;;;5.80;100.00
11049;BME280;5577;42.706;23.160;2023-04-15T02:11:50;93410.22;;;5.79;100.00
11049;BME280;5577;42.706;23.160;2023-04-15T02:14:35;93413.22;;;5.66;100.00
11049;BME280;5577;42.706;23.160;2023-04-15T02:17:20;93413.09;;;5.62;100.00
11049;BME280;5577;42.706;23.160;2023-04-15T02:20:04;93416.84;;;5.61;100.00
11049;BME280;5577;42.706;23.160;2023-04-15T02:22:49;93418.81;;;5.52;100.00
11049;BME280;5577;42.706;23.160;2023-04-15T02:25:33;93411.38;;;5.42;100.00
11049;BME280;5577;42.706;23.160;2023-04-15T02:28:17;93417.75;;;5.29;100.00
11049;BME280;5577;42.706;23.160;2023-04-15T02:31:04;93413.47;;;5.37;100.00
11049;BME280;5577;42.706;23.160;2023-04-15T02:33:49;93410.66;;;5.18;100.00
11049;BME280;5577;42.706;23.160;2023-04-15T02:36:33;93424.53;;;4.94;100.00
11049;BME280;5577;42.706;23.160;2023-04-15T02:39:17;93433.06;;;4.91;100.00
11049;BME280;5577;42.706;23.160;2023-04-15T02:42:01;93430.31;;;4.76;100.00
11049;BME280;5577;42.706;23.160;2023-04-15T02:44:45;93418.41;;;4.78;100.00
11049;BME280;5577;42.706;23.160;2023-04-15T02:47:29;93333.69;;;4.18;100.00
11049;BME280;5577;42.706;23.160;2023-04-15T02:50:13;93333.34;;;4.19;100.00
11049;BME280;5577;42.706;23.160;2023-04-15T02:52:57;93423.88;;;4.85;100.00
11049;BME280;5577;42.706;23.160;2023-04-15T02:55:44;93422.00;;;4.98;100.00
11049;BME280;5577;42.706;23.160;2023-04-15T02:58:28;93427.59;;;4.96;100.00
11049;BME280;5577;42.706;23.160;2023-04-15T03:01:12;93424.31;;;4.87;100.00
11049;BME280;5577;42.706;23.160;2023-04-15T03:03:56;93432.72;;;4.81;100.00
11049;BME280;5577;42.706;23.160;2023-04-15T03:06:40;93428.56;;;4.80;100.00
11049;BME280;5577;42.706;23.160;2023-04-15T03:09:24;93432.25;;;4.67;100.00
11049;BME280;5577;42.706;23.160;2023-04-15T03:12:09;93424.72;;;4.65;100.00
11049;BME280;5577;42.706;23.160;2023-04-15T03:14:53;93436.69;;;4.54;100.00
11049;BME280;5577;42.706;23.160;2023-04-15T03:17:37;93440.19;;;4.46;100.00
11049;BME280;5577;42.706;23.160;2023-04-15T03:20:21;93449.22;;;4.37;100.00
11049;BME280;5577;42.706;23.160;2023-04-15T03:23:06;93453.44;;;4.29;100.00
11049;BME280;5577;42.706;23.160;2023-04-15T03:25:49;93464.38;;;4.31;100.00
11049;BME280;5577;42.706;23.160;2023-04-15T03:28:33;93460.34;;;4.34;100.00
11049;BME280;5577;42.706;23.160;2023-04-15T03:31:17;93462.09;;;4.30;100.00
11049;BME280;5577;42.706;23.160;2023-04-15T03:34:01;93467.56;;;4.37;100.00
11049;BME280;5577;42.706;23.160;2023-04-15T03:36:45;93466.47;;;4.38;100.00
11049;BME280;5577;42.706;23.160;2023-04-15T03:39:30;93473.31;;;4.30;100.00
11049;BME280;5577;42.706;23.160;2023-04-15T03:42:14;93471.69;;;4.26;100.00
11049;BME280;5577;42.706;23.160;2023-04-15T03:44:58;93455.34;;;4.08;100.00
11049;BME280;5577;42.706;23.160;2023-04-15T03:47:42;93473.66;;;4.08;100.00
11049;BME280;5577;42.706;23.160;2023-04-15T03:50:26;93491.00;;;4.01;100.00
11049;BME280;5577;42.706;23.160;2023-04-15T03:53:10;93488.69;;;3.99;100.00
11049;BME280;5577;42.706;23.160;2023-04-15T03:55:54;93491.75;;;4.01;100.00
11049;BME280;5577;42.706;23.160;2023-04-15T03:58:38;93491.56;;;4.06;100.00
11049;BME280;5577;42.706;23.160;2023-04-15T04:01:23;93495.88;;;4.02;100.00
11049;BME280;5577;42.706;23.160;2023-04-15T04:04:07;93485.16;;;3.95;100.00
11049;BME280;5577;42.706;23.160;2023-04-15T04:06:51;93496.22;;;4.01;100.00
11049;BME280;5577;42.706;23.160;2023-04-15T04:09:35;93505.28;;;4.03;100.00
11049;BME280;5577;42.706;23.160;2023-04-15T04:12:19;93499.53;;;4.10;100.00
11049;BME280;5577;42.706;23.160;2023-04-15T04:15:04;93501.00;;;4.19;100.00
11049;BME280;5577;42.706;23.160;2023-04-15T04:17:48;93492.50;;;4.22;100.00
11049;BME280;5577;42.706;23.160;2023-04-15T04:20:32;93487.97;;;4.31;100.00
11049;BME280;5577;42.706;23.160;2023-04-15T04:23:17;93491.72;;;4.42;100.00
11049;BME280;5577;42.706;23.160;2023-04-15T04:26:01;93492.59;;;4.46;100.00
11049;BME280;5577;42.706;23.160;2023-04-15T04:28:45;93487.72;;;4.57;100.00
11049;BME280;5577;42.706;23.160;2023-04-15T04:31:29;93384.53;;;4.05;100.00
11049;BME280;5577;42.706;23.160;2023-04-15T04:34:14;93493.38;;;4.91;100.00
11049;BME280;5577;42.706;23.160;2023-04-15T04:36:58;93468.56;;;4.89;100.00
11049;BME280;5577;42.706;23.160;2023-04-15T04:39:42;93501.06;;;5.08;100.00
11049;BME280;5577;42.706;23.160;2023-04-15T04:42:26;93496.59;;;5.21;100.00
11049;BME280;5577;42.706;23.160;2023-04-15T04:45:10;93496.25;;;5.22;100.00
11049;BME280;5577;42.706;23.160;2023-04-15T04:47:54;93338.81;;;4.14;100.00
11049;BME280;5577;42.706;23.160;2023-04-15T04:50:38;93383.66;;;4.69;100.00
11049;BME280;5577;42.706;23.160;2023-04-15T04:53:22;93507.94;;;5.61;100.00
11049;BME280;5577;42.706;23.160;2023-04-15T04:56:06;93511.44;;;5.77;100.00
11049;BME280;5577;42.706;23.160;2023-04-15T04:58:50;93509.28;;;5.91;100.00
11049;BME280;5577;42.706;23.160;2023-04-15T05:01:34;93505.28;;;5.97;100.00
11049;BME280;5577;42.706;23.160;2023-04-15T05:04:18;93513.69;;;6.15;100.00
11049;BME280;5577;42.706;23.160;2023-04-15T05:07:02;93507.53;;;6.23;100.00
11049;BME280;5577;42.706;23.160;2023-04-15T05:09:46;93517.25;;;6.34;100.00
11049;BME280;5577;42.706;23.160;2023-04-15T05:12:30;93517.97;;;6.47;100.00
11049;BME280;5577;42.706;23.160;2023-04-15T05:15:15;93510.81;;;6.59;100.00
11049;BME280;5577;42.706;23.160;2023-04-15T05:17:59;93518.16;;;6.81;100.00
11049;BME280;5577;42.706;23.160;2023-04-15T05:20:43;93512.91;;;6.97;100.00
11049;BME280;5577;42.706;23.160;2023-04-15T05:23:27;93509.91;;;7.10;100.00
11049;BME280;5577;42.706;23.160;2023-04-15T05:26:11;93515.06;;;7.22;100.00
11049;BME280;5577;42.706;23.160;2023-04-15T05:28:55;93503.19;;;7.28;100.00
11049;BME280;5577;42.706;23.160;2023-04-15T05:31:39;93499.56;;;7.48;100.00
11049;BME280;5577;42.706;23.160;2023-04-15T05:34:23;93509.63;;;7.62;100.00
11049;BME280;5577;42.706;23.160;2023-04-15T05:37:07;93533.00;;;7.79;100.00
11049;BME280;5577;42.706;23.160;2023-04-15T05:39:51;93521.16;;;7.88;100.00
11049;BME280;5577;42.706;23.160;2023-04-15T05:42:35;93497.50;;;7.92;100.00
11049;BME280;5577;42.706;23.160;2023-04-15T05:45:19;93447.41;;;7.73;100.00
11049;BME280;5577;42.706;23.160;2023-04-15T05:48:03;93532.31;;;8.32;100.00
11049;BME280;5577;42.706;23.160;2023-04-15T05:50:47;93522.94;;;8.53;100.00
11049;BME280;5577;42.706;23.160;2023-04-15T05:53:31;93531.22;;;8.71;100.00
11049;BME280;5577;42.706;23.160;2023-04-15T05:56:15;93531.34;;;8.78;100.00
11049;BME280;5577;42.706;23.160;2023-04-15T05:59:00;93525.91;;;8.90;100.00
11049;BME280;5577;42.706;23.160;2023-04-15T06:01:45;93535.22;;;9.03;100.00
11049;BME280;5577;42.706;23.160;2023-04-15T06:04:30;93533.13;;;9.12;100.00
11049;BME280;5577;42.706;23.160;2023-04-15T06:07:15;93529.34;;;9.13;100.00
11049;BME280;5577;42.706;23.160;2023-04-15T06:09:59;93538.34;;;9.31;100.00
11049;BME280;5577;42.706;23.160;2023-04-15T06:12:43;93533.72;;;9.47;100.00
11049;BME280;5577;42.706;23.160;2023-04-15T06:15:28;93555.22;;;9.68;100.00
11049;BME280;5577;42.706;23.160;2023-04-15T06:18:12;93544.19;;;9.89;100.00
11049;BME280;5577;42.706;23.160;2023-04-15T06:20:56;93550.28;;;10.15;100.00
11049;BME280;5577;42.706;23.160;2023-04-15T06:23:41;93477.88;;;10.01;100.00
11049;BME280;5577;42.706;23.160;2023-04-15T06:26:25;93547.41;;;10.83;100.00
11049;BME280;5577;42.706;23.160;2023-04-15T06:29:09;93555.63;;;11.07;100.00
11049;BME280;5577;42.706;23.160;2023-04-15T06:31:53;93544.44;;;11.21;100.00
11049;BME280;5577;42.706;23.160;2023-04-15T06:34:39;93481.72;;;10.95;100.00
11049;BME280;5577;42.706;23.160;2023-04-15T06:37:23;93557.06;;;11.38;100.00
11049;BME280;5577;42.706;23.160;2023-04-15T06:40:07;93563.69;;;11.54;100.00
11049;BME280;5577;42.706;23.160;2023-04-15T06:42:52;93572.19;;;11.71;100.00
11049;BME280;5577;42.706;23.160;2023-04-15T06:45:36;93570.78;;;11.84;100.00
11049;BME280;5577;42.706;23.160;2023-04-15T06:48:21;93555.75;;;11.98;93.79
11049;BME280;5577;42.706;23.160;2023-04-15T06:51:05;93491.84;;;11.63;96.94
11049;BME280;5577;42.706;23.160;2023-04-15T06:53:49;93563.19;;;12.33;93.02
11049;BME280;5577;42.706;23.160;2023-04-15T06:56:33;93502.31;;;11.96;71.87
11049;BME280;5577;42.706;23.160;2023-04-15T06:59:17;93569.19;;;12.23;73.59
11049;BME280;5577;42.706;23.160;2023-04-15T07:02:01;93568.47;;;12.29;65.70
11049;BME280;5577;42.706;23.160;2023-04-15T07:04:45;93560.69;;;12.54;67.82
11049;BME280;5577;42.706;23.160;2023-04-15T07:07:30;93517.78;;;12.52;65.05
11049;BME280;5577;42.706;23.160;2023-04-15T07:10:14;93559.97;;;12.67;61.37
11049;BME280;5577;42.706;23.160;2023-04-15T07:12:58;93557.28;;;12.57;62.34
11049;BME280;5577;42.706;23.160;2023-04-15T07:15:42;93568.31;;;12.62;60.76
11049;BME280;5577;42.706;23.160;2023-04-15T07:18:26;93540.88;;;12.37;60.91
11049;BME280;5577;42.706;23.160;2023-04-15T07:21:10;93563.34;;;12.54;60.99
11049;BME280;5577;42.706;23.160;2023-04-15T07:23:54;93568.84;;;12.96;59.38
11049;BME280;5577;42.706;23.160;2023-04-15T07:26:38;93566.09;;;12.78;60.03
11049;BME280;5577;42.706;23.160;2023-04-15T07:29:23;93564.22;;;12.79;57.10
11049;BME280;5577;42.706;23.160;2023-04-15T07:32:07;93565.13;;;13.07;59.42
11049;BME280;5577;42.706;23.160;2023-04-15T07:34:50;93566.72;;;13.29;58.09
11049;BME280;5577;42.706;23.160;2023-04-15T07:37:34;93532.97;;;13.44;56.71
11049;BME280;5577;42.706;23.160;2023-04-15T07:40:18;93569.06;;;13.52;56.11
11049;BME280;5577;42.706;23.160;2023-04-15T07:43:02;93580.06;;;13.50;55.80
11049;BME280;5577;42.706;23.160;2023-04-15T07:45:47;93572.09;;;13.57;57.26
11049;BME280;5577;42.706;23.160;2023-04-15T07:48:31;93582.03;;;13.74;55.72
11049;BME280;5577;42.706;23.160;2023-04-15T07:51:15;93586.94;;;13.65;55.48
11049;BME280;5577;42.706;23.160;2023-04-15T07:54:00;93573.28;;;13.70;56.47
11049;BME280;5577;42.706;23.160;2023-04-15T07:56:44;93577.44;;;13.82;55.19
11049;BME280;5577;42.706;23.160;2023-04-15T07:59:29;93593.06;;;14.01;52.88
11049;BME280;5577;42.706;23.160;2023-04-15T08:02:13;93590.03;;;14.02;54.02
11049;BME280;5577;42.706;23.160;2023-04-15T08:04:58;93594.97;;;14.04;53.67
11049;BME280;5577;42.706;23.160;2023-04-15T08:07:42;93588.50;;;14.05;53.62
11049;BME280;5577;42.706;23.160;2023-04-15T08:10:28;93597.63;;;14.14;54.42
11049;BME280;5577;42.706;23.160;2023-04-15T08:13:12;93603.00;;;14.25;55.46
11049;BME280;5577;42.706;23.160;2023-04-15T08:16:19;93606.75;;;14.13;53.96
11049;BME280;5577;42.706;23.160;2023-04-15T08:19:03;93606.38;;;13.94;54.18
11049;BME280;5577;42.706;23.160;2023-04-15T08:21:48;93583.16;;;13.87;55.46
11049;BME280;5577;42.706;23.160;2023-04-15T08:24:33;93600.72;;;14.30;55.16
11049;BME280;5577;42.706;23.160;2023-04-15T08:27:17;93588.09;;;14.59;54.21
11049;BME280;5577;42.706;23.160;2023-04-15T08:30:01;93604.47;;;14.68;53.49
11049;BME280;5577;42.706;23.160;2023-04-15T08:32:46;93585.75;;;14.86;52.66
11049;BME280;5577;42.706;23.160;2023-04-15T08:35:30;93592.97;;;14.96;51.85
11049;BME280;5577;42.706;23.160;2023-04-15T08:38:14;93590.78;;;15.73;54.36
11049;BME280;5577;42.706;23.160;2023-04-15T08:41:01;93592.97;;;15.89;49.83
11049;BME280;5577;42.706;23.160;2023-04-15T08:43:56;93589.69;;;15.60;49.62
11049;BME280;5577;42.706;23.160;2023-04-15T08:46:41;93569.91;;;15.54;50.76
11049;BME280;5577;42.706;23.160;2023-04-15T08:49:26;93566.28;;;15.85;48.75
11049;BME280;5577;42.706;23.160;2023-04-15T08:52:11;93579.75;;;16.22;49.67
11049;BME280;5577;42.706;23.160;2023-04-15T08:54:56;93591.66;;;16.62;46.62
11049;BME280;5577;42.706;23.160;2023-04-15T08:57:41;93584.25;;;17.10;45.86
11049;BME280;5577;42.706;23.160;2023-04-15T09:00:26;93595.91;;;16.52;45.16
11049;BME280;5577;42.706;23.160;2023-04-15T09:03:10;93545.41;;;15.70;45.33
11049;BME280;5577;42.706;23.160;2023-04-15T09:05:56;93589.75;;;16.08;46.39
11049;BME280;5577;42.706;23.160;2023-04-15T09:08:40;93584.13;;;16.50;45.69
11049;BME280;5577;42.706;23.160;2023-04-15T09:11:25;93584.94;;;16.40;44.39
11049;BME280;5577;42.706;23.160;2023-04-15T09:14:09;93546.00;;;16.46;44.50
11049;BME280;5577;42.706;23.160;2023-04-15T09:17:00;93562.91;;;16.29;45.63
11049;BME280;5577;42.706;23.160;2023-04-15T09:19:45;93552.81;;;16.03;45.45
11049;BME280;5577;42.706;23.160;2023-04-15T09:22:32;93565.94;;;15.80;45.14
11049;BME280;5577;42.706;23.160;2023-04-15T09:28:07;93533.38;;;16.02;44.38
11049;BME280;5577;42.706;23.160;2023-04-15T09:30:58;93564.59;;;16.56;43.58
11049;BME280;5577;42.706;23.160;2023-04-15T09:34:01;93569.47;;;17.02;43.76
11049;BME280;5577;42.706;23.160;2023-04-15T09:39:49;93566.88;;;17.29;40.24
11049;BME280;5577;42.706;23.160;2023-04-15T09:42:35;93560.50;;;17.79;39.17
11049;BME280;5577;42.706;23.160;2023-04-15T09:45:20;93569.56;;;17.59;37.49
11049;BME280;5577;42.706;23.160;2023-04-15T09:48:22;93565.25;;;17.68;38.34
11049;BME280;5577;42.706;23.160;2023-04-15T09:51:06;93553.81;;;17.91;36.65
11049;BME280;5577;42.706;23.160;2023-04-15T09:53:54;93543.31;;;17.50;36.60
11049;BME280;5577;42.706;23.160;2023-04-15T09:56:39;93580.78;;;17.17;38.01
11049;BME280;5577;42.706;23.160;2023-04-15T09:59:26;93585.69;;;16.84;38.23
11049;BME280;5577;42.706;23.160;2023-04-15T10:02:11;93569.03;;;16.70;38.64
11049;BME280;5577;42.706;23.160;2023-04-15T10:04:56;93546.00;;;16.83;38.34
11049;BME280;5577;42.706;23.160;2023-04-15T10:07:41;93533.09;;;16.34;38.66
11049;BME280;5577;42.706;23.160;2023-04-15T10:10:26;93567.31;;;17.24;38.97
11049;BME280;5577;42.706;23.160;2023-04-15T10:13:12;93557.75;;;17.23;38.40
11049;BME280;5577;42.706;23.160;2023-04-15T10:16:09;93566.31;;;18.24;39.66
11049;BME280;5577;42.706;23.160;2023-04-15T10:18:55;93536.81;;;18.27;37.41
11049;BME280;5577;42.706;23.160;2023-04-15T10:21:40;93536.84;;;18.89;36.97
11049;BME280;5577;42.706;23.160;2023-04-15T10:24:24;93532.06;;;19.59;35.93
11049;BME280;5577;42.706;23.160;2023-04-15T10:27:08;93520.09;;;19.05;35.07
11049;BME280;5577;42.706;23.160;2023-04-15T10:29:53;93529.25;;;18.45;35.36
11049;BME280;5577;42.706;23.160;2023-04-15T10:32:39;93529.47;;;18.31;35.90
11049;BME280;5577;42.706;23.160;2023-04-15T10:35:24;93527.50;;;18.35;36.55
11049;BME280;5577;42.706;23.160;2023-04-15T10:44:03;93515.78;;;19.82;33.68
11049;BME280;5577;42.706;23.160;2023-04-15T10:46:50;93514.44;;;19.90;34.93
11049;BME280;5577;42.706;23.160;2023-04-15T10:49:34;93519.16;;;20.66;34.42
11049;BME280;5577;42.706;23.160;2023-04-15T10:52:28;93525.34;;;21.36;32.53
11049;BME280;5577;42.706;23.160;2023-04-15T10:55:15;93517.69;;;21.35;32.53
11049;BME280;5577;42.706;23.160;2023-04-15T10:58:01;93513.06;;;20.94;32.64
11049;BME280;5577;42.706;23.160;2023-04-15T11:00:49;93511.59;;;21.59;31.23
11049;BME280;5577;42.706;23.160;2023-04-15T11:03:39;93522.34;;;21.47;31.40
11049;BME280;5577;42.706;23.160;2023-04-15T11:06:43;93500.91;;;21.56;31.44
11049;BME280;5577;42.706;23.160;2023-04-15T11:09:32;93506.34;;;22.65;29.63
11049;BME280;5577;42.706;23.160;2023-04-15T11:12:18;93511.34;;;23.10;29.49
11049;BME280;5577;42.706;23.160;2023-04-15T11:21:04;93508.13;;;21.46;30.74
11049;BME280;5577;42.706;23.160;2023-04-15T11:23:49;93502.91;;;22.05;30.91
11049;BME280;5577;42.706;23.160;2023-04-15T11:26:34;93503.88;;;23.87;28.42
11049;BME280;5577;42.706;23.160;2023-04-15T11:29:17;93513.72;;;22.86;28.57
11049;BME280;5577;42.706;23.160;2023-04-15T11:32:07;93483.81;;;23.36;28.83
11049;BME280;5577;42.706;23.160;2023-04-15T11:34:51;93498.41;;;22.83;28.79
11049;BME280;5577;42.706;23.160;2023-04-15T11:37:35;93502.25;;;22.14;29.38
11049;BME280;5577;42.706;23.160;2023-04-15T11:43:19;93510.19;;;21.67;29.02
11049;BME280;5577;42.706;23.160;2023-04-15T11:46:03;93493.28;;;21.67;28.68
11049;BME280;5577;42.706;23.160;2023-04-15T11:48:48;93501.69;;;21.56;29.41
11049;BME280;5577;42.706;23.160;2023-04-15T11:51:33;93508.00;;;21.37;28.80
11049;BME280;5577;42.706;23.160;2023-04-15T11:54:18;93504.59;;;20.19;29.33
11049;BME280;5577;42.706;23.160;2023-04-15T11:57:02;93500.66;;;21.79;29.05
11049;BME280;5577;42.706;23.160;2023-04-15T11:59:46;93503.06;;;22.83;27.69
11049;BME280;5577;42.706;23.160;2023-04-15T12:02:30;93503.47;;;23.58;26.86
11049;BME280;5577;42.706;23.160;2023-04-15T12:05:15;93506.25;;;22.90;27.18
11049;BME280;5577;42.706;23.160;2023-04-15T12:07:59;93504.06;;;20.08;29.08
11049;BME280;5577;42.706;23.160;2023-04-15T12:10:43;93502.25;;;19.34;31.70
11049;BME280;5577;42.706;23.160;2023-04-15T12:13:27;93493.06;;;22.11;28.72
11049;BME280;5577;42.706;23.160;2023-04-15T12:16:11;93483.69;;;23.70;26.59
11049;BME280;5577;42.706;23.160;2023-04-15T12:18:58;93444.69;;;24.20;25.98
11049;BME280;5577;42.706;23.160;2023-04-15T12:21:46;93498.00;;;23.49;25.73
11049;BME280;5577;42.706;23.160;2023-04-15T12:24:33;93475.59;;;20.43;28.33
11049;BME280;5577;42.706;23.160;2023-04-15T12:27:17;93499.81;;;21.28;29.30
11049;BME280;5577;42.706;23.160;2023-04-15T12:30:05;93460.78;;;20.79;28.47
11049;BME280;5577;42.706;23.160;2023-04-15T12:32:50;93495.44;;;22.09;27.96
11049;BME280;5577;42.706;23.160;2023-04-15T12:35:35;93508.97;;;22.90;27.11
11049;BME280;5577;42.706;23.160;2023-04-15T12:38:19;93503.78;;;24.39;25.88
11049;BME280;5577;42.706;23.160;2023-04-15T12:41:03;93500.34;;;23.99;26.14
11049;BME280;5577;42.706;23.160;2023-04-15T12:43:47;93507.16;;;22.40;26.16
11049;BME280;5577;42.706;23.160;2023-04-15T12:46:31;93493.19;;;23.01;24.14
11049;BME280;5577;42.706;23.160;2023-04-15T12:49:15;93510.69;;;23.61;24.67
11049;BME280;5577;42.706;23.160;2023-04-15T12:52:02;93507.06;;;23.34;24.33
11049;BME280;5577;42.706;23.160;2023-04-15T12:54:47;93506.34;;;24.52;24.34
11049;BME280;5577;42.706;23.160;2023-04-15T12:57:31;93503.41;;;25.31;23.07
11049;BME280;5577;42.706;23.160;2023-04-15T13:00:16;93509.34;;;24.45;22.58
11049;BME280;5577;42.706;23.160;2023-04-15T13:03:00;93498.38;;;24.48;23.42
11049;BME280;5577;42.706;23.160;2023-04-15T13:05:44;93502.16;;;24.51;23.63
11049;BME280;5577;42.706;23.160;2023-04-15T13:08:28;93509.47;;;22.17;26.08
11049;BME280;5577;42.706;23.160;2023-04-15T13:11:11;93498.56;;;20.15;29.37
11049;BME280;5577;42.706;23.160;2023-04-15T13:13:56;93500.63;;;21.13;28.46
11049;BME280;5577;42.706;23.160;2023-04-15T13:16:41;93504.59;;;21.62;28.19
11049;BME280;5577;42.706;23.160;2023-04-15T13:19:25;93504.59;;;22.24;28.36
11049;BME280;5577;42.706;23.160;2023-04-15T13:22:09;93497.56;;;25.83;25.45
11049;BME280;5577;42.706;23.160;2023-04-15T13:24:54;93505.47;;;26.70;24.85
11049;BME280;5577;42.706;23.160;2023-04-15T13:27:39;93507.13;;;26.44;23.01
11049;BME280;5577;42.706;23.160;2023-04-15T13:30:23;93509.25;;;26.72;21.47
11049;BME280;5577;42.706;23.160;2023-04-15T13:33:07;93493.78;;;27.02;21.72
11049;BME280;5577;42.706;23.160;2023-04-15T13:35:51;93440.63;;;25.51;21.57
11049;BME280;5577;42.706;23.160;2023-04-15T13:38:35;93508.66;;;25.26;24.31
11049;BME280;5577;42.706;23.160;2023-04-15T13:41:19;93507.50;;;25.86;23.98
11049;BME280;5577;42.706;23.160;2023-04-15T13:44:03;93492.88;;;24.70;24.50
11049;BME280;5577;42.706;23.160;2023-04-15T13:46:48;93501.13;;;21.61;28.09
11049;BME280;5577;42.706;23.160;2023-04-15T13:49:32;93483.09;;;24.63;25.66
11049;BME280;5577;42.706;23.160;2023-04-15T13:52:17;93492.22;;;21.89;27.84
11049;BME280;5577;42.706;23.160;2023-04-15T13:55:02;93497.88;;;24.23;25.34
11049;BME280;5577;42.706;23.160;2023-04-15T13:57:46;93484.34;;;26.74;23.18
11049;BME280;5577;42.706;23.160;2023-04-15T14:00:30;93490.25;;;26.87;22.05
11049;BME280;5577;42.706;23.160;2023-04-15T14:03:14;93494.44;;;25.76;23.06
11049;BME280;5577;42.706;23.160;2023-04-15T14:05:58;93425.78;;;22.98;24.44
11049;BME280;5577;42.706;23.160;2023-04-15T14:08:42;93491.97;;;23.45;24.80
11049;BME280;5577;42.706;23.160;2023-04-15T14:11:26;93498.13;;;25.00;22.72
11049;BME280;5577;42.706;23.160;2023-04-15T14:14:10;93465.84;;;26.63;21.72
11049;BME280;5577;42.706;23.160;2023-04-15T14:16:54;93487.97;;;26.71;21.61
11049;BME280;5577;42.706;23.160;2023-04-15T14:19:38;93485.81;;;24.72;21.01
11049;BME280;5577;42.706;23.160;2023-04-15T14:22:22;93478.41;;;22.93;23.29
11049;BME280;5577;42.706;23.160;2023-04-15T14:25:07;93483.47;;;23.56;23.60
11049;BME280;5577;42.706;23.160;2023-04-15T14:27:51;93491.34;;;25.23;22.44
11049;BME280;5577;42.706;23.160;2023-04-15T14:30:35;93469.47;;;23.79;22.61
11049;BME280;5577;42.706;23.160;2023-04-15T14:33:19;93471.66;;;22.55;24.24
11049;BME280;5577;42.706;23.160;2023-04-15T14:36:03;93484.13;;;22.95;24.43
11049;BME280;5577;42.706;23.160;2023-04-15T14:38:47;93478.03;;;23.47;23.26
11049;BME280;5577;42.706;23.160;2023-04-15T14:41:31;93479.22;;;23.76;23.05
11049;BME280;5577;42.706;23.160;2023-04-15T14:44:15;93484.13;;;21.89;24.71
11049;BME280;5577;42.706;23.160;2023-04-15T14:46:59;93489.09;;;21.91;24.74
11049;BME280;5577;42.706;23.160;2023-04-15T14:49:43;93476.25;;;23.10;23.31
11049;BME280;5577;42.706;23.160;2023-04-15T14:52:27;93483.28;;;23.07;23.26